createdAt,value
2022-12-05T00:01:59.210Z,95377.34
2022-12-05T00:04:27.199Z,95381.31
2022-12-05T00:06:55.174Z,95378.75
2022-12-05T00:09:24.503Z,95380.84
2022-12-05T00:11:52.371Z,95382.97
2022-12-05T00:14:20.258Z,95384.63
2022-12-05T00:16:48.210Z,95381.31
2022-12-05T00:19:17.259Z,95376.41
2022-12-05T00:21:45.175Z,95380.63
2022-12-05T00:24:15.665Z,95385.06
2022-12-05T00:26:45.535Z,95382.03
2022-12-05T00:29:13.548Z,95388.38
2022-12-05T00:31:41.655Z,95388.69
2022-12-05T00:34:09.651Z,95394.91
2022-12-05T00:36:38.172Z,95398.41
2022-12-05T00:39:08.687Z,95403.22
2022-12-05T00:41:37.400Z,95395.28
2022-12-05T00:44:06.994Z,95396.56
2022-12-05T00:46:36.838Z,95390.47
2022-12-05T00:49:06.732Z,95400.50
2022-12-05T00:51:36.844Z,95395.38
2022-12-05T00:54:07.602Z,95397.72
2022-12-05T00:56:36.244Z,95387.16
2022-12-05T00:59:04.919Z,95381.81
2022-12-05T01:01:36.503Z,95384.72
2022-12-05T01:04:06.872Z,95379.91
2022-12-05T01:06:35.281Z,95367.03
2022-12-05T01:09:03.812Z,95372.91
2022-12-05T01:11:37.637Z,95368.00
2022-12-05T01:14:09.216Z,95362.47
2022-12-05T01:16:40.308Z,95363.19
2022-12-05T01:19:12.079Z,95365.63
2022-12-05T01:21:40.036Z,95362.72
2022-12-05T01:24:08.685Z,95368.22
2022-12-05T01:26:36.788Z,95365.75
2022-12-05T01:29:05.491Z,95367.03
2022-12-05T01:31:36.120Z,95355.81
2022-12-05T01:34:08.322Z,95351.38
2022-12-05T01:36:36.838Z,95345.84
2022-12-05T01:39:04.913Z,95347.75
2022-12-05T01:41:35.053Z,95349.03
2022-12-05T01:44:05.798Z,95338.72
2022-12-05T01:46:36.588Z,95338.84
2022-12-05T01:49:11.135Z,95337.44
2022-12-05T01:51:41.436Z,95339.09
2022-12-05T01:54:11.532Z,95340.25
2022-12-05T01:56:42.899Z,95338.13
2022-12-05T01:59:12.885Z,95338.50
2022-12-05T02:01:42.164Z,95343.66
2022-12-05T02:04:12.109Z,95321.75
2022-12-05T02:06:40.025Z,95340.09
2022-12-05T02:09:08.255Z,95339.75
2022-12-05T02:11:38.914Z,95344.78
2022-12-05T02:14:26.930Z,95352.53
2022-12-05T02:17:02.518Z,95350.06
2022-12-05T02:20:01.284Z,95350.41
2022-12-05T02:22:45.520Z,95353.94
2022-12-05T02:25:34.678Z,95353.69
2022-12-05T02:28:27.287Z,95360.50
2022-12-05T02:31:01.157Z,95341.53
2022-12-05T02:33:38.128Z,95342.59
2022-12-05T02:36:12.184Z,95348.31
2022-12-05T02:38:48.412Z,95344.44
2022-12-05T02:41:23.001Z,95338.00
2022-12-05T02:43:55.986Z,95341.53
2022-12-05T02:46:28.437Z,95336.97
2022-12-05T02:49:01.067Z,95329.13
2022-12-05T02:51:34.508Z,95325.94
2022-12-05T02:54:06.660Z,95329.00
2022-12-05T02:56:36.669Z,95326.63
2022-12-05T02:59:04.665Z,95328.97
2022-12-05T03:01:34.335Z,95320.91
2022-12-05T03:04:05.406Z,95325.56
2022-12-05T03:06:37.915Z,95327.19
2022-12-05T03:09:10.164Z,95328.38
2022-12-05T03:11:42.199Z,95315.59
2022-12-05T03:14:16.897Z,95323.66
2022-12-05T03:16:50.492Z,95331.41
2022-12-05T03:19:22.633Z,95327.44
2022-12-05T03:21:54.708Z,95328.34
2022-12-05T03:24:23.325Z,95331.28
2022-12-05T03:26:59.697Z,95325.53
2022-12-05T03:29:32.708Z,95332.59
2022-12-05T03:32:09.629Z,95336.06
2022-12-05T03:34:55.544Z,95339.72
2022-12-05T03:37:31.986Z,95336.69
2022-12-05T03:40:07.754Z,95339.00
2022-12-05T03:42:39.906Z,95339.84
2022-12-05T03:45:12.565Z,95340.03
2022-12-05T03:47:50.620Z,95335.00
2022-12-05T03:50:23.871Z,95333.97
2022-12-05T03:53:19.245Z,95344.59
2022-12-05T03:55:51.680Z,95344.03
2022-12-05T03:58:27.380Z,95348.59
2022-12-05T04:00:58.538Z,95343.44
2022-12-05T04:03:39.597Z,95346.03
2022-12-05T04:06:13.511Z,95341.34
2022-12-05T04:08:46.289Z,95346.38
2022-12-05T04:11:17.788Z,95337.72
2022-12-05T04:13:49.338Z,95333.72
2022-12-05T04:16:39.401Z,95328.56
2022-12-05T04:19:15.580Z,95331.72
2022-12-05T04:21:47.304Z,95325.06
2022-12-05T04:24:38.650Z,95319.31
2022-12-05T04:27:24.299Z,95325.75
2022-12-05T04:29:59.383Z,95322.97
2022-12-05T04:32:33.741Z,95318.16
2022-12-05T04:35:10.528Z,95319.09
2022-12-05T04:37:43.620Z,95331.53
2022-12-05T04:40:15.928Z,95321.44
2022-12-05T04:42:46.319Z,95331.66
2022-12-05T04:45:19.001Z,95330.66
2022-12-05T04:47:52.247Z,95335.00
2022-12-05T04:50:24.302Z,95335.94
2022-12-05T04:52:56.221Z,95335.94
2022-12-05T04:55:28.064Z,95338.75
2022-12-05T04:58:03.896Z,95334.41
2022-12-05T05:00:32.962Z,95341.44
2022-12-05T05:03:07.801Z,95343.56
2022-12-05T05:05:39.979Z,95341.91
2022-12-05T05:08:18.562Z,95348.47
2022-12-05T05:10:53.589Z,95346.56
2022-12-05T05:13:21.489Z,95353.84
2022-12-05T05:15:49.485Z,95355.34
2022-12-05T05:18:17.698Z,95360.75
2022-12-05T05:20:47.163Z,95368.50
2022-12-05T05:23:15.480Z,95370.13
2022-12-05T05:25:43.543Z,95371.97
2022-12-05T05:28:11.417Z,95367.56
2022-12-05T05:30:39.321Z,95364.84
2022-12-05T05:33:07.251Z,95373.63
2022-12-05T05:35:37.262Z,95371.13
2022-12-05T05:38:06.647Z,95370.59
2022-12-05T05:40:37.560Z,95376.28
2022-12-05T05:43:05.581Z,95370.81
2022-12-05T05:45:33.517Z,95369.41
2022-12-05T05:48:01.500Z,95377.84
2022-12-05T05:50:29.529Z,95382.03
2022-12-05T05:52:57.516Z,95384.75
2022-12-05T05:55:26.820Z,95377.84
2022-12-05T05:57:54.738Z,95387.19
2022-12-05T06:00:23.042Z,95385.94
2022-12-05T06:02:51.132Z,95388.25
2022-12-05T06:05:19.197Z,95385.31
2022-12-05T06:07:47.291Z,95393.19
2022-12-05T06:10:15.290Z,95394.25
2022-12-05T06:12:44.915Z,95396.13
2022-12-05T06:15:13.542Z,95385.69
2022-12-05T06:17:41.557Z,95376.59
2022-12-05T06:20:10.962Z,95387.59
2022-12-05T06:22:39.106Z,95387.13
2022-12-05T06:25:08.125Z,95385.22
2022-12-05T06:27:36.175Z,95380.69
2022-12-05T06:30:06.744Z,95383.03
2022-12-05T06:32:35.257Z,95394.75
2022-12-05T06:35:10.975Z,95388.19
2022-12-05T06:37:39.215Z,95397.50
2022-12-05T06:40:08.484Z,95385.00
2022-12-05T06:42:36.641Z,95396.94
2022-12-05T06:45:07.309Z,95383.69
2022-12-05T06:47:35.449Z,95382.16
2022-12-05T06:50:03.427Z,95403.94
2022-12-05T06:52:31.503Z,95394.41
2022-12-05T06:54:59.824Z,95407.63
2022-12-05T06:57:29.781Z,95406.38
2022-12-05T07:00:22.372Z,95395.94
2022-12-05T07:02:54.141Z,95393.25
2022-12-05T07:05:22.304Z,95378.38
2022-12-05T07:07:56.745Z,95381.19
2022-12-05T07:10:24.741Z,95409.72
2022-12-05T07:12:52.660Z,95411.38
2022-12-05T07:15:20.643Z,95412.31
2022-12-05T07:17:48.513Z,95420.72
2022-12-05T07:20:18.403Z,95425.28
2022-12-05T07:22:46.645Z,95411.91
2022-12-05T07:25:14.671Z,95417.53
2022-12-05T07:27:42.633Z,95410.88
2022-12-05T07:30:11.147Z,95421.16
2022-12-05T07:32:39.189Z,95428.06
2022-12-05T07:35:08.233Z,95435.69
2022-12-05T07:37:37.737Z,95433.84
2022-12-05T07:40:07.073Z,95432.66
2022-12-05T07:42:46.249Z,95434.53
2022-12-05T07:45:14.581Z,95438.38
2022-12-05T07:47:42.633Z,95441.00
2022-12-05T07:50:11.387Z,95442.78
2022-12-05T07:52:40.897Z,95445.44
2022-12-05T07:55:09.788Z,95429.38
2022-12-05T07:57:38.180Z,95437.00
2022-12-05T08:00:07.546Z,95429.38
2022-12-05T08:02:40.266Z,95430.56
2022-12-05T08:05:09.152Z,95430.59
2022-12-05T08:07:37.333Z,95421.53
2022-12-05T08:10:08.448Z,95417.28
2022-12-05T08:12:37.965Z,95425.03
2022-12-05T08:15:07.192Z,95431.41
2022-12-05T08:17:35.155Z,95433.41
2022-12-05T08:20:03.052Z,95429.25
2022-12-05T08:22:30.982Z,95430.44
2022-12-05T08:24:59.158Z,95430.31
2022-12-05T08:27:28.771Z,95429.56
2022-12-05T08:29:57.310Z,95427.38
2022-12-05T08:32:25.541Z,95429.75
2022-12-05T08:34:53.687Z,95432.81
2022-12-05T08:37:24.219Z,95437.88
2022-12-05T08:39:52.200Z,95434.75
2022-12-05T08:42:24.867Z,95436.78
2022-12-05T08:44:54.226Z,95433.28
2022-12-05T08:47:22.124Z,95428.81
2022-12-05T08:49:50.016Z,95432.97
2022-12-05T08:52:18.288Z,95419.88
2022-12-05T08:54:46.229Z,95438.44
2022-12-05T08:57:16.792Z,95439.50
2022-12-05T08:59:44.694Z,95440.31
2022-12-05T09:02:14.160Z,95439.00
2022-12-05T09:04:42.218Z,95443.13
2022-12-05T09:07:10.159Z,95430.34
2022-12-05T09:09:38.307Z,95442.03
2022-12-05T09:12:06.580Z,95440.16
2022-12-05T09:14:34.547Z,95438.19
2022-12-05T09:17:02.491Z,95439.50
2022-12-05T09:19:31.820Z,95439.78
2022-12-05T09:21:59.782Z,95441.31
2022-12-05T09:24:27.731Z,95439.16
2022-12-05T09:26:56.137Z,95437.66
2022-12-05T09:29:25.619Z,95436.19
2022-12-05T09:31:55.734Z,95442.91
2022-12-05T09:34:26.061Z,95437.59
2022-12-05T09:37:10.278Z,95444.94
2022-12-05T09:39:44.906Z,95436.34
2022-12-05T09:42:40.251Z,95430.94
2022-12-05T09:45:24.029Z,95437.31
2022-12-05T09:47:58.245Z,95433.88
2022-12-05T09:50:28.583Z,95414.63
2022-12-05T09:53:04.898Z,95433.34
2022-12-05T09:55:40.190Z,95416.41
2022-12-05T09:58:21.385Z,95418.47
2022-12-05T10:00:51.072Z,95417.50
2022-12-05T10:03:27.212Z,95421.59
2022-12-05T10:06:04.043Z,95415.09
2022-12-05T10:08:46.825Z,95414.44
2022-12-05T10:11:20.693Z,95409.13
2022-12-05T10:14:01.796Z,95402.53
2022-12-05T10:16:33.729Z,95404.03
2022-12-05T10:19:07.939Z,95397.09
2022-12-05T10:21:51.891Z,95401.31
2022-12-05T10:24:27.847Z,95400.91
2022-12-05T10:27:01.297Z,95402.09
2022-12-05T10:29:33.176Z,95389.56
2022-12-05T10:32:13.183Z,95398.31
2022-12-05T10:34:42.800Z,95398.31
2022-12-05T10:37:18.059Z,95398.22
2022-12-05T10:39:48.747Z,95394.13
2022-12-05T10:42:21.155Z,95384.75
2022-12-05T10:44:51.338Z,95392.66
2022-12-05T10:47:19.439Z,95385.69
2022-12-05T10:49:47.739Z,95380.13
2022-12-05T10:52:26.505Z,95377.13
2022-12-05T10:55:00.897Z,95380.41
2022-12-05T10:57:31.106Z,95381.22
2022-12-05T10:59:59.914Z,95379.03
2022-12-05T11:02:30.704Z,95368.84
2022-12-05T11:05:05.465Z,95368.00
2022-12-05T11:07:36.949Z,95369.19
2022-12-05T11:10:26.694Z,95373.03
2022-12-05T11:12:57.014Z,95360.25
2022-12-05T11:15:27.738Z,95366.38
2022-12-05T11:17:58.124Z,95361.59
2022-12-05T11:20:40.809Z,95350.16
2022-12-05T11:23:32.749Z,95353.69
2022-12-05T11:26:03.252Z,95342.94
2022-12-05T11:28:34.774Z,95342.78
2022-12-05T11:31:05.597Z,95340.03
2022-12-05T11:33:34.715Z,95338.44
2022-12-05T11:36:07.942Z,95337.88
2022-12-05T11:38:36.085Z,95324.84
2022-12-05T11:41:26.459Z,95326.34
2022-12-05T11:44:13.600Z,95324.69
2022-12-05T11:46:55.287Z,95323.31
2022-12-05T11:49:46.366Z,95309.72
2022-12-05T11:52:29.598Z,95315.44
2022-12-05T11:55:07.100Z,95310.94
2022-12-05T11:57:52.701Z,95307.41
2022-12-05T12:00:24.559Z,95298.28
2022-12-05T12:03:19.064Z,95303.59
2022-12-05T12:05:58.518Z,95310.78
2022-12-05T12:08:28.829Z,95306.00
2022-12-05T12:11:09.485Z,95294.72
2022-12-05T12:13:56.641Z,95291.72
2022-12-05T12:16:37.986Z,95289.66
2022-12-05T12:19:29.586Z,95285.72
2022-12-05T12:22:08.119Z,95284.50
2022-12-05T12:24:55.177Z,95283.69
2022-12-05T12:27:35.393Z,95278.13
2022-12-05T12:30:12.479Z,95256.47
2022-12-05T12:32:51.608Z,95273.34
2022-12-05T12:35:29.295Z,95269.81
2022-12-05T12:38:35.902Z,95268.03
2022-12-05T12:41:13.196Z,95268.56
2022-12-05T12:43:54.661Z,95269.53
2022-12-05T12:46:44.735Z,95269.41
2022-12-05T12:49:29.590Z,95260.81
2022-12-05T12:52:04.540Z,95259.53
2022-12-05T12:55:13.288Z,95266.38
2022-12-05T12:57:58.178Z,95260.28
2022-12-05T13:00:36.860Z,95259.53
2022-12-05T13:03:13.147Z,95255.63
2022-12-05T13:05:46.739Z,95254.28
2022-12-05T13:08:21.306Z,95257.00
2022-12-05T13:10:50.370Z,95262.72
2022-12-05T13:13:23.216Z,95252.78
2022-12-05T13:15:54.039Z,95260.16
2022-12-05T13:18:25.354Z,95235.91
2022-12-05T13:20:58.193Z,95255.53
2022-12-05T13:23:29.693Z,95260.91
2022-12-05T13:26:01.373Z,95260.66
2022-12-05T13:28:32.152Z,95266.09
2022-12-05T13:31:05.949Z,95264.28
2022-12-05T13:33:37.292Z,95258.31
2022-12-05T13:36:27.504Z,95257.19
2022-12-05T13:39:18.533Z,95255.88
2022-12-05T13:42:05.896Z,95268.78
2022-12-05T13:44:39.083Z,95267.53
2022-12-05T13:47:18.885Z,95261.94
2022-12-05T13:49:52.979Z,95262.09
2022-12-05T13:52:25.819Z,95255.66
2022-12-05T13:55:00.747Z,95258.81
2022-12-05T13:57:50.064Z,95258.66
2022-12-05T14:00:27.758Z,95259.59
2022-12-05T14:02:58.865Z,95258.91
2022-12-05T14:05:46.623Z,95255.88
2022-12-05T14:08:56.053Z,95252.59
2022-12-05T14:11:24.787Z,95255.16
2022-12-05T14:14:00.715Z,95254.59
2022-12-05T14:16:50.688Z,95258.41
2022-12-05T14:19:56.100Z,95264.38
2022-12-05T14:22:58.192Z,95260.28
2022-12-05T14:25:48.998Z,95258.66
2022-12-05T14:28:39.705Z,95251.34
2022-12-05T14:31:24.535Z,95257.88
2022-12-05T14:34:07.276Z,95262.78
2022-12-05T14:36:38.563Z,95254.22
2022-12-05T14:42:02.986Z,95261.53
2022-12-05T14:44:33.398Z,95267.91
2022-12-05T14:47:05.669Z,95264.94
2022-12-05T14:49:55.940Z,95257.78
2022-12-05T14:52:26.645Z,95252.91
2022-12-05T14:54:59.510Z,95247.53
2022-12-05T14:57:30.467Z,95256.22
2022-12-05T15:00:02.432Z,95251.66
2022-12-05T15:02:33.792Z,95256.31
2022-12-05T15:05:06.954Z,95252.25
2022-12-05T15:07:38.892Z,95254.31
2022-12-05T15:10:12.551Z,95253.56
2022-12-05T15:12:45.003Z,95257.53
2022-12-05T15:15:19.858Z,95251.81
2022-12-05T15:17:51.650Z,95263.94
2022-12-05T15:20:28.854Z,95250.59
2022-12-05T15:22:56.969Z,95250.59
2022-12-05T15:25:28.339Z,95251.88
2022-12-05T15:28:04.058Z,95243.56
2022-12-05T15:30:33.861Z,95244.06
2022-12-05T15:33:02.991Z,95240.97
2022-12-05T15:35:35.106Z,95242.19
2022-12-05T15:38:10.695Z,95237.38
2022-12-05T15:40:38.631Z,95243.41
2022-12-05T15:43:31.642Z,95242.09
2022-12-05T15:46:10.866Z,95251.47
2022-12-05T15:48:39.075Z,95252.16
2022-12-05T15:51:07.481Z,95237.03
2022-12-05T15:53:46.579Z,95230.28
2022-12-05T15:56:18.017Z,95245.13
2022-12-05T15:58:56.615Z,95243.47
2022-12-05T16:01:27.466Z,95247.78
2022-12-05T16:04:00.306Z,95244.28
2022-12-05T16:06:34.421Z,95243.25
2022-12-05T16:09:11.503Z,95242.13
2022-12-05T16:11:40.289Z,95240.09
2022-12-05T16:14:37.181Z,95249.56
2022-12-05T16:17:08.729Z,95250.50
2022-12-05T16:19:37.491Z,95241.03
2022-12-05T16:22:10.548Z,95246.22
2022-12-05T16:24:42.589Z,95249.72
2022-12-05T16:27:16.844Z,95236.81
2022-12-05T16:29:46.429Z,95246.47
2022-12-05T16:32:23.052Z,95253.28
2022-12-05T16:34:51.290Z,95239.63
2022-12-05T16:37:27.953Z,95234.97
2022-12-05T16:40:01.352Z,95243.28
2022-12-05T16:42:31.189Z,95241.91
2022-12-05T16:45:16.787Z,95238.16
2022-12-05T16:47:57.766Z,95231.34
2022-12-05T16:50:36.401Z,95223.22
2022-12-05T16:53:16.540Z,95224.59
2022-12-05T16:55:45.950Z,95232.06
2022-12-05T16:58:20.423Z,95229.75
2022-12-05T17:00:52.295Z,95224.59
2022-12-05T17:03:37.062Z,95217.06
2022-12-05T17:08:51.487Z,95214.22
2022-12-05T17:11:23.295Z,95225.34
2022-12-05T17:13:53.081Z,95218.88
2022-12-05T17:16:23.076Z,95228.91
2022-12-05T17:19:06.164Z,95230.00
2022-12-05T17:21:35.726Z,95230.78
2022-12-05T17:24:12.154Z,95223.84
2022-12-05T17:26:40.338Z,95232.03
2022-12-05T17:29:08.756Z,95235.16
2022-12-05T17:31:42.529Z,95232.47
2022-12-05T17:34:17.374Z,95236.13
2022-12-05T17:36:51.800Z,95243.25
2022-12-05T17:39:28.318Z,95239.81
2022-12-05T17:41:57.782Z,95230.56
2022-12-05T17:44:39.789Z,95232.19
2022-12-05T17:47:10.977Z,95235.25
2022-12-05T17:55:22.937Z,95244.28
2022-12-05T17:57:53.892Z,95236.88
2022-12-05T18:00:23.854Z,95243.63
2022-12-05T18:03:02.482Z,95239.03
2022-12-05T18:05:38.623Z,95251.28
2022-12-05T18:08:08.975Z,95232.88
2022-12-05T18:10:37.298Z,95253.94
2022-12-05T18:13:06.938Z,95254.66
2022-12-05T18:15:39.474Z,95230.16
2022-12-05T18:21:14.835Z,95253.31
2022-12-05T18:23:43.343Z,95255.47
2022-12-05T18:26:12.344Z,95265.97
2022-12-05T18:28:46.473Z,95269.00
2022-12-05T18:31:20.053Z,95271.78
2022-12-05T18:33:49.660Z,95267.28
2022-12-05T18:36:20.619Z,95255.16
2022-12-05T18:38:51.913Z,95266.09
2022-12-05T18:41:21.343Z,95269.13
2022-12-05T18:43:50.723Z,95269.63
2022-12-05T18:46:20.337Z,95264.19
2022-12-05T18:55:16.911Z,95264.91
2022-12-05T19:00:31.837Z,95258.34
2022-12-05T19:02:59.969Z,95254.38
2022-12-05T19:05:31.465Z,95257.09
2022-12-05T19:08:02.131Z,95255.50
2022-12-05T19:10:30.548Z,95250.47
2022-12-05T19:12:58.739Z,95251.41
2022-12-05T19:15:27.288Z,95246.22
2022-12-05T19:17:55.756Z,95239.69
2022-12-05T19:20:24.197Z,95234.22
2022-12-05T19:22:59.179Z,95244.13
2022-12-05T19:25:31.754Z,95243.56
2022-12-05T19:28:00.136Z,95245.22
2022-12-05T19:30:28.243Z,95244.41
2022-12-05T19:33:01.607Z,95252.88
2022-12-05T19:35:30.280Z,95238.31
2022-12-05T19:37:58.387Z,95246.78
2022-12-05T19:40:26.778Z,95247.03
2022-12-05T19:42:58.229Z,95235.03
2022-12-05T19:45:42.961Z,95251.38
2022-12-05T19:48:17.865Z,95240.47
2022-12-05T19:50:58.421Z,95247.16
2022-12-05T19:53:43.161Z,95234.38
2022-12-05T19:56:19.724Z,95238.03
2022-12-05T19:58:52.358Z,95239.88
2022-12-05T20:01:23.558Z,95232.63
2022-12-05T20:03:59.056Z,95235.31
2022-12-05T20:06:28.005Z,95233.16
2022-12-05T20:08:56.456Z,95234.38
2022-12-05T20:11:29.276Z,95232.34
2022-12-05T20:14:00.127Z,95225.44
2022-12-05T20:16:30.372Z,95229.91
2022-12-05T20:19:00.337Z,95230.72
2022-12-05T20:24:28.112Z,95220.09
2022-12-05T20:27:11.079Z,95222.13
2022-12-05T20:29:46.230Z,95218.09
2022-12-05T20:32:15.113Z,95217.81
2022-12-05T20:34:43.881Z,95212.56
2022-12-05T20:37:13.366Z,95210.38
2022-12-05T20:40:14.813Z,95216.16
2022-12-05T20:42:46.951Z,95211.72
2022-12-05T20:45:15.893Z,95212.53
2022-12-05T20:47:45.077Z,95208.97
2022-12-05T20:50:15.442Z,95211.66
2022-12-05T20:52:47.136Z,95211.78
2022-12-05T20:55:16.547Z,95208.97
2022-12-05T20:57:46.309Z,95218.97
2022-12-05T21:00:15.002Z,95203.75
2022-12-05T21:02:43.083Z,95214.47
2022-12-05T21:05:13.124Z,95216.09
2022-12-05T21:07:41.422Z,95215.22
2022-12-05T21:10:10.683Z,95213.44
2022-12-05T21:12:38.948Z,95203.75
2022-12-05T21:15:09.883Z,95210.50
2022-12-05T21:17:38.529Z,95200.91
2022-12-05T21:20:10.313Z,95175.38
2022-12-05T21:22:38.440Z,95195.13
2022-12-05T21:25:08.663Z,95193.50
2022-12-05T21:27:36.702Z,95179.03
2022-12-05T21:30:05.524Z,95169.94
2022-12-05T21:32:35.443Z,95175.00
2022-12-05T21:35:03.710Z,95175.94
2022-12-05T21:37:31.762Z,95173.66
2022-12-05T21:39:59.925Z,95178.81
2022-12-05T21:42:28.751Z,95172.63
2022-12-05T21:44:56.952Z,95176.03
2022-12-05T21:47:25.346Z,95175.75
2022-12-05T21:49:54.918Z,95171.66
2022-12-05T21:52:23.542Z,95163.13
2022-12-05T21:54:51.565Z,95172.50
2022-12-05T21:57:20.404Z,95165.38
2022-12-05T21:59:48.982Z,95160.91
2022-12-05T22:02:17.087Z,95166.00
2022-12-05T22:04:45.375Z,95156.44
2022-12-05T22:07:15.808Z,95162.41
2022-12-05T22:09:43.960Z,95174.81
2022-12-05T22:12:12.175Z,95171.06
2022-12-05T22:14:40.199Z,95167.56
2022-12-05T22:17:08.229Z,95161.09
2022-12-05T22:19:36.218Z,95168.34
2022-12-05T22:22:04.201Z,95168.91
2022-12-05T22:24:33.800Z,95163.56
2022-12-05T22:27:01.921Z,95158.16
2022-12-05T22:29:33.591Z,95161.53
2022-12-05T22:32:04.230Z,95160.41
2022-12-05T22:34:32.368Z,95151.44
2022-12-05T22:37:00.565Z,95159.03
2022-12-05T22:39:29.126Z,95149.09
2022-12-05T22:41:59.519Z,95156.53
2022-12-05T22:44:27.795Z,95152.47
2022-12-05T22:46:55.880Z,95144.16
2022-12-05T22:49:25.364Z,95140.84
2022-12-05T22:51:53.586Z,95145.81
2022-12-05T22:54:25.854Z,95146.22
2022-12-05T22:56:58.097Z,95140.84
2022-12-05T22:59:26.090Z,95144.78
2022-12-05T23:01:54.444Z,95136.53
2022-12-05T23:04:22.637Z,95134.91
2022-12-05T23:06:50.663Z,95139.78
2022-12-05T23:09:20.591Z,95138.84
2022-12-05T23:11:50.140Z,95134.09
2022-12-05T23:14:19.586Z,95128.69
2022-12-05T23:16:47.551Z,95130.19
2022-12-05T23:19:15.620Z,95133.03
2022-12-05T23:21:43.570Z,95134.59
2022-12-05T23:24:13.979Z,95131.69
2022-12-05T23:26:44.117Z,95141.75
2022-12-05T23:29:13.129Z,95127.22
2022-12-05T23:31:43.070Z,95132.69
2022-12-05T23:34:11.885Z,95120.03
2022-12-05T23:36:40.192Z,95131.00
2022-12-05T23:39:08.191Z,95125.59
2022-12-05T23:41:36.174Z,95125.19
2022-12-05T23:44:04.241Z,95112.91
2022-12-05T23:46:32.363Z,95116.97
2022-12-05T23:49:01.837Z,95119.47
2022-12-05T23:51:31.173Z,95105.72
2022-12-05T23:54:01.191Z,95104.25
2022-12-05T23:56:31.543Z,95115.09
2022-12-05T23:59:00.361Z,95108.72
